createdAt,value
2023-03-03T00:02:35.445Z,98470
2023-03-03T00:14:35.322Z,98480
2023-03-03T00:26:35.325Z,98500
2023-03-03T00:38:35.440Z,98500
2023-03-03T00:50:35.345Z,98490
2023-03-03T01:02:35.510Z,98500
2023-03-03T01:14:35.363Z,98510
2023-03-03T01:26:35.395Z,98500
2023-03-03T01:38:35.340Z,98500
2023-03-03T01:50:35.438Z,98490
2023-03-03T02:02:35.435Z,98480
2023-03-03T02:14:35.407Z,98470
2023-03-03T02:26:36.380Z,98480
2023-03-03T02:38:35.351Z,98470
2023-03-03T02:50:35.436Z,98480
2023-03-03T03:02:35.338Z,98480
2023-03-03T03:14:35.321Z,98480
2023-03-03T03:26:35.322Z,98490
2023-03-03T03:38:35.412Z,98500
2023-03-03T03:50:35.332Z,98500
2023-03-03T04:02:35.522Z,98490
2023-03-03T04:14:35.344Z,98500
2023-03-03T04:26:35.354Z,98500
2023-03-03T04:38:35.345Z,98510
2023-03-03T04:50:35.353Z,98510
2023-03-03T05:02:36.672Z,98500
2023-03-03T05:14:35.352Z,98520
2023-03-03T05:26:35.366Z,98500
2023-03-03T05:38:35.345Z,98510
2023-03-03T05:50:35.370Z,98520
2023-03-03T06:02:35.426Z,98530
2023-03-03T06:14:35.391Z,98540
2023-03-03T06:26:35.340Z,98540
2023-03-03T06:38:35.328Z,98560
2023-03-03T06:50:35.434Z,98570
2023-03-03T07:02:35.633Z,98600
2023-03-03T07:14:35.333Z,98620
2023-03-03T07:26:35.368Z,98620
2023-03-03T07:38:35.452Z,98660
2023-03-03T07:50:35.394Z,98660
2023-03-03T08:02:35.342Z,98690
2023-03-03T08:14:35.411Z,98700
2023-03-03T08:26:35.402Z,98720
2023-03-03T08:38:35.317Z,98710
2023-03-03T08:50:36.960Z,98720
2023-03-03T09:02:35.330Z,98730
2023-03-03T09:14:35.442Z,98740
2023-03-03T09:26:35.374Z,98760
2023-03-03T09:38:35.324Z,98750
2023-03-03T09:50:35.323Z,98780
2023-03-03T10:02:35.494Z,98770
2023-03-03T10:14:35.431Z,98780
2023-03-03T10:26:44.965Z,98800
2023-03-03T10:38:35.651Z,98820
2023-03-03T10:50:35.354Z,98830
2023-03-03T11:02:35.327Z,98830
2023-03-03T11:14:35.439Z,98850
2023-03-03T11:26:35.328Z,98820
2023-03-03T11:38:35.740Z,98800
2023-03-03T11:50:35.331Z,98820
2023-03-03T12:02:35.415Z,98780
2023-03-03T12:14:35.317Z,98800
2023-03-03T12:26:35.454Z,98790
2023-03-03T12:38:35.452Z,98800
2023-03-03T12:50:35.387Z,98800
2023-03-03T13:02:35.417Z,98800
2023-03-03T13:14:35.406Z,98780
2023-03-03T13:26:35.371Z,98780
2023-03-03T13:38:35.412Z,98810
2023-03-03T13:50:41.268Z,98800
2023-03-03T14:02:35.379Z,98800
2023-03-03T14:14:36.656Z,98780
2023-03-03T14:26:35.472Z,98790
2023-03-03T14:38:35.362Z,98760
2023-03-03T14:50:35.385Z,98760
2023-03-03T15:02:35.447Z,98760
2023-03-03T15:14:35.456Z,98750
2023-03-03T15:26:35.407Z,98740
2023-03-03T15:38:35.407Z,98730
2023-03-03T15:50:35.387Z,98710
2023-03-03T16:02:35.363Z,98730
2023-03-03T16:14:35.327Z,98730
2023-03-03T16:26:35.415Z,98730
2023-03-03T16:38:35.344Z,98740
2023-03-03T16:50:35.397Z,98750
2023-03-03T17:02:35.320Z,98760
2023-03-03T17:14:35.366Z,98760
2023-03-03T17:26:35.411Z,98770
2023-03-03T17:38:35.318Z,98770
2023-03-03T17:50:35.349Z,98780
2023-03-03T18:02:35.328Z,98780
2023-03-03T18:14:35.332Z,98780
2023-03-03T18:26:35.329Z,98810
2023-03-03T18:38:35.345Z,98830
2023-03-03T18:50:35.346Z,98820
2023-03-03T19:02:35.343Z,98820
2023-03-03T19:14:35.328Z,98830
2023-03-03T19:26:35.373Z,98820
2023-03-03T19:38:35.425Z,98820
2023-03-03T19:50:35.412Z,98830
2023-03-03T20:02:35.326Z,98830
2023-03-03T20:14:35.391Z,98840
2023-03-03T20:26:35.463Z,98840
2023-03-03T20:38:35.333Z,98840
2023-03-03T20:50:35.409Z,98840
2023-03-03T21:02:35.435Z,98830
2023-03-03T21:14:35.448Z,98830
2023-03-03T21:26:35.332Z,98830
2023-03-03T21:38:35.457Z,98830
2023-03-03T21:50:35.336Z,98840
2023-03-03T22:02:35.372Z,98840
2023-03-03T22:14:35.331Z,98830
2023-03-03T22:26:35.339Z,98840
2023-03-03T22:38:35.371Z,98850
2023-03-03T22:50:35.327Z,98850
2023-03-03T23:02:35.410Z,98860
2023-03-03T23:14:35.326Z,98850
2023-03-03T23:26:35.322Z,98840
2023-03-03T23:38:35.382Z,98850
2023-03-03T23:50:35.342Z,98850
